Welcome to Northern Hawkes Bay. New Zealand.
PWS Header
      nz Flag



Hit Counter


W3C Valid W3C Valid logo


    Wairoa

Select any of the Stations below to visit their websites.










Historic Data from Weather Underground
Select the location of interest below. Wairoa is the default. Please have patience, this Data is slow to load in.
Northern Hawkes Bay Historical Data
Daily Summary for January 18, 2017 Units:  English    Metric   Both
« Previous Day
Next Day »
Daily Weekly Monthly Yearly Custom
  High: Low: Average:
Temperature: 85.5 °F 57.4 °F 72.3 °F
Dew Point: 57.6 °F 49.3 °F 53.1 °F
Humidity: 86% 33% 53%
Wind Speed: 12.1mph 0mph 4mph
Wind Gust: 22.1mph - -
Wind- - West
Pressure: 29.8 in 29.6 in -
Precipitation: 0 in    
Historical Graphs
 
 
Tabular Data for January 18, 2017
Time Temperature Dew Point Pressure Wind Wind Speed Wind Gust Humidity Rainfall Rate (Hourly) solar
00:01 64.6 °F 53.1 °F 29.8 in NNW 3.8 mph 6.9 mph 66% 0 in 0 W/m2
00:06 64.4 °F 52.9 °F 29.8 in NNW 4.5 mph 7.6 mph 66% 0 in 0 W/m2
00:11 64.4 °F 52.9 °F 29.8 in NNW 5.4 mph 8.3 mph 66% 0 in 0 W/m2
00:16 64.4 °F 52.9 °F 29.8 in NNW 3.8 mph 8.3 mph 66% 0 in 0 W/m2
00:21 64.4 °F 52.9 °F 29.8 in NNW 3.1 mph 8.3 mph 66% 0 in 0 W/m2
00:26 64.2 °F 52.5 °F 29.8 in NW 4.5 mph 6 mph 66% 0 in 0 W/m2
00:31 64.4 °F 52.9 °F 29.8 in NNW 4.5 mph 6 mph 66% 0 in 0 W/m2
00:36 64.4 °F 52.9 °F 29.8 in North 6 mph 8.3 mph 66% 0 in 0 W/m2
00:42 64.4 °F 52.9 °F 29.8 in NNW 3.8 mph 8.3 mph 66% 0 in 0 W/m2
00:47 64 °F 52.2 °F 29.8 in NNW 3.8 mph 8.3 mph 65% 0 in 0 W/m2
00:52 63.9 °F 52.3 °F 29.8 in NNE 6 mph 8.3 mph 66% 0 in 0 W/m2
00:57 63.9 °F 52.3 °F 29.8 in NNE 3.8 mph 8.3 mph 66% 0 in 0 W/m2
01:02 63.7 °F 52.2 °F 29.8 in North 3.1 mph 8.3 mph 66% 0 in 0 W/m2
01:07 63.5 °F 52 °F 29.8 in North 3.1 mph 7.6 mph 66% 0 in 0 W/m2
01:12 63.5 °F 52 °F 29.8 in North 3.1 mph 6.9 mph 66% 0 in 0 W/m2
01:17 63.3 °F 52.2 °F 29.8 in NNW 3.1 mph 6 mph 67% 0 in 0 W/m2
01:36 63 °F 51.8 °F 29.8 in NW 1.6 mph 4.5 mph 67% 0 in 0 W/m2
01:41 62.4 °F 52.2 °F 29.8 in NNW 2.2 mph 3.8 mph 69% 0 in 0 W/m2
01:46 61.9 °F 52.3 °F 29.8 in NNW 3.1 mph 3.8 mph 71% 0 in 0 W/m2
01:51 61.5 °F 52.3 °F 29.8 in NW 0.7 mph 3.8 mph 72% 0 in 0 W/m2
01:56 61.5 °F 52.3 °F 29.8 in NW 0.7 mph 3.8 mph 72% 0 in 0 W/m2
02:01 61.3 °F 52.3 °F 29.8 in NW 1.6 mph 3.8 mph 72% 0 in 0 W/m2
02:06 61.2 °F 52.2 °F 29.8 in WNW 1.6 mph 3.1 mph 72% 0 in 0 W/m2
02:11 61.2 °F 52.2 °F 29.8 in WNW 1.6 mph 3.8 mph 72% 0 in 0 W/m2
02:16 61 °F 52 °F 29.8 in NW 3.1 mph 4.5 mph 72% 0 in 0 W/m2
02:21 61.2 °F 52.5 °F 29.8 in NNW 1.6 mph 4.5 mph 73% 0 in 0 W/m2
02:26 61.2 °F 52.5 °F 29.8 in Calm   4.5 mph 73% 0 in 0 W/m2
02:31 60.8 °F 51.6 °F 29.8 in NW 0.7 mph 3.1 mph 72% 0 in 0 W/m2
02:36 60.6 °F 52.3 °F 29.8 in Calm   3.8 mph 74% 0 in 0 W/m2
02:41 60.4 °F 52.2 °F 29.8 in Calm   3.8 mph 74% 0 in 0 W/m2
02:46 60.3 °F 52 °F 29.8 in Calm   2.2 mph 74% 0 in 0 W/m2
02:51 59.9 °F 51.6 °F 29.8 in Calm   0.7 mph 74% 0 in 0 W/m2
02:56 59.7 °F 51.8 °F 29.8 in Calm   1.6 mph 75% 0 in 0 W/m2
03:01 59.9 °F 52 °F 29.8 in NW 0.7 mph 2.2 mph 75% 0 in 0 W/m2
03:06 60.1 °F 52.5 °F 29.8 in NW 3.1 mph 4.5 mph 76% 0 in 0 W/m2
03:11 60.1 °F 52.5 °F 29.8 in NW 3.1 mph 5.4 mph 76% 0 in 0 W/m2
03:16 60.1 °F 52.5 °F 29.8 in NW 2.2 mph 5.4 mph 76% 0 in 0 W/m2
03:21 59.9 °F 52.3 °F 29.8 in NNW 2.2 mph 4.5 mph 76% 0 in 0 W/m2
03:26 59.7 °F 52.5 °F 29.8 in NNW 2.2 mph 4.5 mph 77% 0 in 0 W/m2
03:31 59.5 °F 52.3 °F 29.8 in Calm   3.8 mph 77% 0 in 0 W/m2
03:36 59.4 °F 52.2 °F 29.8 in Calm   3.1 mph 77% 0 in 0 W/m2
03:41 59.5 °F 52.3 °F 29.8 in WNW 1.6 mph 3.8 mph 77% 0 in 0 W/m2
03:46 59.7 °F 52.5 °F 29.8 in NW 3.1 mph 5.4 mph 77% 0 in 0 W/m2
03:51 59.9 °F 52.7 °F 29.8 in NW 3.1 mph 5.4 mph 77% 0 in 0 W/m2
03:56 59.9 °F 52.7 °F 29.8 in NW 3.1 mph 6.9 mph 77% 0 in 0 W/m2
04:01 59.9 °F 52.7 °F 29.8 in NNW 3.8 mph 6.9 mph 77% 0 in 0 W/m2
04:06 60.1 °F 52.5 °F 29.8 in NNW 3.8 mph 6 mph 76% 0 in 0 W/m2
04:11 59.9 °F 52.7 °F 29.8 in NNW 2.2 mph 6 mph 77% 0 in 0 W/m2
04:16 59.7 °F 52.5 °F 29.8 in NNW 3.1 mph 5.4 mph 77% 0 in 0 W/m2
04:21 59.7 °F 52.5 °F 29.8 in North 1.6 mph 4.5 mph 77% 0 in 0 W/m2
04:26 59.7 °F 52.5 °F 29.8 in North 2.2 mph 3.8 mph 77% 0 in 0 W/m2
04:31 59.7 °F 52.9 °F 29.8 in NNW 3.1 mph 4.5 mph 78% 0 in 0 W/m2
04:36 59.7 °F 52.9 °F 29.8 in NW 3.1 mph 5.4 mph 78% 0 in 0 W/m2
04:41 59.7 °F 52.9 °F 29.8 in NNW 3.8 mph 5.4 mph 78% 0 in 0 W/m2
04:46 59.9 °F 53.4 °F 29.8 in NNW 3.1 mph 5.4 mph 79% 0 in 0 W/m2
04:51 59.9 °F 53.1 °F 29.8 in NNW 1.6 mph 5.4 mph 78% 0 in 0 W/m2
04:56 59.7 °F 53.2 °F 29.8 in NNE 3.1 mph 4.5 mph 79% 0 in 0 W/m2
05:01 59.7 °F 53.2 °F 29.8 in ENE 0.7 mph 4.5 mph 79% 0 in 0 W/m2
05:06 59.5 °F 53.1 °F 29.8 in Calm   4.5 mph 79% 0 in 0 W/m2
05:11 59.9 °F 53.4 °F 29.8 in Calm   1.6 mph 79% 0 in 0 W/m2
05:28 59.2 °F 53.1 °F 29.8 in North 1.6 mph 2.2 mph 80% 0 in 0 W/m2
05:33 59.2 °F 53.4 °F 29.8 in NNW 0.7 mph 2.2 mph 81% 0 in 0 W/m2
05:38 59.4 °F 53.4 °F 29.8 in NNW 1.6 mph 2.2 mph 81% 0 in 0 W/m2
05:43 59.7 °F 54 °F 29.8 in NW 2.2 mph 3.8 mph 81% 0 in 0 W/m2
05:48 58.8 °F 53.2 °F 29.8 in NW 1.6 mph 3.8 mph 82% 0 in 0 W/m2
05:53 58.6 °F 53.4 °F 29.8 in NW 1.6 mph 3.1 mph 83% 0 in 0 W/m2
05:58 58.3 °F 53.4 °F 29.8 in NNW 3.1 mph 4.5 mph 84% 0 in 0 W/m2
06:03 58.3 °F 53.8 °F 29.8 in North 3.1 mph 5.4 mph 85% 0 in 2 W/m2
06:08 57.7 °F 53.2 °F 29.8 in North 1.6 mph 5.4 mph 85% 0 in 5 W/m2
06:13 57.6 °F 53.1 °F 29.8 in North 0.7 mph 4.5 mph 85% 0 in 9 W/m2
06:18 57.6 °F 53.4 °F 29.8 in North 2.2 mph 3.1 mph 86% 0 in 16 W/m2
06:23 57.4 °F 53.2 °F 29.8 in North 1.6 mph 3.8 mph 86% 0 in 23 W/m2
06:28 57.7 °F 53.6 °F 29.8 in NNW 0.7 mph 3.8 mph 86% 0 in 30 W/m2
06:33 57.9 °F 53.8 °F 29.8 in NW 3.8 mph 5.4 mph 86% 0 in 40 W/m2
06:38 58.3 °F 53.8 °F 29.8 in NNW 3.1 mph 6 mph 85% 0 in 56 W/m2
06:43 58.8 °F 54.3 °F 29.8 in NNW 3.1 mph 6 mph 85% 0 in 81 W/m2
06:48 59.9 °F 54.7 °F 29.8 in NNW 1.6 mph 5.4 mph 83% 0 in 94 W/m2
06:53 60.8 °F 54 °F 29.8 in NNW 3.1 mph 4.5 mph 78% 0 in 92 W/m2
06:58 61.3 °F 53.8 °F 29.8 in NW 1.6 mph 5.4 mph 76% 0 in 104 W/m2
07:03 62.1 °F 54.1 °F 29.8 in NW 4.5 mph 6.9 mph 75% 0 in 120 W/m2
07:08 62.6 °F 53.8 °F 29.8 in NNW 4.5 mph 6.9 mph 73% 0 in 123 W/m2
07:13 63.1 °F 54 °F 29.8 in NNW 3.1 mph 6.9 mph 72% 0 in 144 W/m2
07:18 63.5 °F 54 °F 29.8 in NNW 2.2 mph 6.9 mph 71% 0 in 92 W/m2
07:23 63.5 °F 54 °F 29.8 in NW 3.1 mph 6.9 mph 71% 0 in 109 W/m2
07:28 63.1 °F 53.6 °F 29.8 in NW 5.4 mph 7.6 mph 71% 0 in 101 W/m2
07:33 62.8 °F 53.2 °F 29.8 in NNW 3.8 mph 7.6 mph 71% 0 in 103 W/m2
07:38 63 °F 53.8 °F 29.8 in NW 3.1 mph 7.6 mph 72% 0 in 142 W/m2
07:43 63.5 °F 54 °F 29.8 in NW 6 mph 9.2 mph 71% 0 in 162 W/m2
07:48 63.7 °F 53.2 °F 29.8 in NNW 5.4 mph 9.2 mph 69% 0 in 143 W/m2
07:53 64.2 °F 53.4 °F 29.8 in NNW 3.8 mph 9.2 mph 68% 0 in 132 W/m2
07:58 64.2 °F 53.1 °F 29.8 in NNW 6.9 mph 9.2 mph 67% 0 in 196 W/m2
08:03 64.2 °F 52.5 °F 29.8 in NNW 4.5 mph 10.7 mph 66% 0 in 181 W/m2
08:08 64.4 °F 53.2 °F 29.8 in NNW 6.9 mph 11.4 mph 67% 0 in 193 W/m2
08:13 64.8 °F 54 °F 29.8 in NNW 4.5 mph 11.4 mph 68% 0 in 210 W/m2
08:18 65.3 °F 54.5 °F 29.8 in NW 2.2 mph 9.8 mph 68% 0 in 196 W/m2
08:23 65.8 °F 54.7 °F 29.8 in NW 4.5 mph 7.6 mph 67% 0 in 303 W/m2
08:28 67.3 °F 54.7 °F 29.8 in NW 6 mph 8.3 mph 64% 0 in 349 W/m2
08:33 68 °F 55 °F 29.8 in NW 6 mph 10.7 mph 63% 0 in 377 W/m2
08:38 68.7 °F 55.2 °F 29.8 in NNW 2.2 mph 10.7 mph 62% 0 in 147 W/m2
08:43 68.4 °F 54.3 °F 29.8 in North 6 mph 9.2 mph 61% 0 in 275 W/m2
08:48 70.2 °F 54.7 °F 29.8 in North 5.4 mph 8.3 mph 58% 0 in 400 W/m2
08:53 71.2 °F 53.8 °F 29.8 in NNW 4.5 mph 9.8 mph 54% 0 in 416 W/m2
08:58 72.5 °F 53.4 °F 29.8 in NNW 6 mph 9.8 mph 51% 0 in 439 W/m2
09:03 72.7 °F 52.3 °F 29.8 in NNW 5.4 mph 9.8 mph 49% 0 in 239 W/m2
09:08 72.7 °F 52 °F 29.8 in NNW 6.9 mph 9.8 mph 48% 0 in 422 W/m2
09:13 73 °F 52.2 °F 29.8 in NW 4.5 mph 9.2 mph 48% 0 in 476 W/m2
09:18 73.9 °F 53.1 °F 29.8 in NW 3.1 mph 9.2 mph 48% 0 in 496 W/m2
09:23 74.3 °F 52.2 °F 29.8 in NNW 6.9 mph 9.2 mph 46% 0 in 520 W/m2
09:28 74.7 °F 53.1 °F 29.8 in NNW 6.9 mph 11.4 mph 47% 0 in 536 W/m2
09:33 74.3 °F 52.9 °F 29.8 in North 6.9 mph 12.1 mph 47% 0 in 554 W/m2
09:38 75 °F 53.4 °F 29.8 in North 6.9 mph 12.1 mph 47% 0 in 600 W/m2
09:43 75.6 °F 53.4 °F 29.8 in North 6 mph 12.1 mph 46% 0 in 631 W/m2
09:48 76.1 °F 53.2 °F 29.8 in NNW 4.5 mph 9.8 mph 45% 0 in 613 W/m2
09:53 76.6 °F 53.8 °F 29.7 in NNW 3.8 mph 10.7 mph 45% 0 in 638 W/m2
09:58 77.5 °F 53.2 °F 29.7 in NNW 6 mph 10.7 mph 43% 0 in 660 W/m2
10:03 77 °F 52.9 °F 29.7 in NNW 3.1 mph 9.8 mph 43% 0 in 680 W/m2
10:08 77.4 °F 52.5 °F 29.7 in NNW 8.3 mph 13 mph 42% 0 in 702 W/m2
10:13 77.5 °F 52.7 °F 29.7 in NNW 6.9 mph 13 mph 42% 0 in 729 W/m2
10:18 78.3 °F 54 °F 29.7 in NNW 4.5 mph 13 mph 43% 0 in 749 W/m2
10:23 78.6 °F 50.9 °F 29.7 in NNW 7.6 mph 12.1 mph 38% 0 in 769 W/m2
10:28 78.3 °F 50.5 °F 29.7 in NNW 7.6 mph 15.2 mph 38% 0 in 794 W/m2
10:33 78.6 °F 50.9 °F 29.7 in NNW 3.8 mph 15.2 mph 38% 0 in 772 W/m2
10:38 79.9 °F 51.3 °F 29.7 in NW 3.1 mph 12.1 mph 37% 0 in 828 W/m2
10:43 80.1 °F 50.7 °F 29.7 in WNW 4.5 mph 9.2 mph 36% 0 in 851 W/m2
10:48 80.2 °F 51.6 °F 29.7 in WNW 6 mph 11.4 mph 37% 0 in 815 W/m2
10:53 79.9 °F 51.3 °F 29.7 in NW 2.2 mph 13 mph 37% 0 in 820 W/m2
10:58 81.1 °F 50.9 °F 29.7 in NNW 3.1 mph 13 mph 35% 0 in 862 W/m2
11:03 81 °F 49.3 °F 29.7 in NNW 3.8 mph 8.3 mph 33% 0 in 880 W/m2
11:08 81.5 °F 50.5 °F 29.7 in NNW 3.1 mph 8.3 mph 34% 0 in 877 W/m2
11:13 82 °F 51.6 °F 29.7 in WNW 6.9 mph 9.2 mph 35% 0 in 882 W/m2
11:18 81.5 °F 54.9 °F 29.7 in West 3.1 mph 9.2 mph 40% 0 in 839 W/m2
11:24 80.8 °F 52.2 °F 29.7 in South 3.1 mph 7.6 mph 37% 0 in 828 W/m2
11:29 80.1 °F 53.6 °F 29.7 in South 6 mph 10.7 mph 40% 0 in 825 W/m2
11:34 79.2 °F 52.9 °F 29.7 in South 6 mph 10.7 mph 40% 0 in 935 W/m2
11:39 78.8 °F 52.5 °F 29.7 in South 7.6 mph 10.7 mph 40% 0 in 921 W/m2
11:44 79.2 °F 54.1 °F 29.7 in South 3.8 mph 10.7 mph 42% 0 in 841 W/m2
11:49 79.9 °F 54.9 °F 29.7 in SSE 6 mph 9.8 mph 42% 0 in 999 W/m2
11:54 79.7 °F 54.7 °F 29.7 in SSE 4.5 mph 11.4 mph 42% 0 in 985 W/m2
11:59 79.7 °F 52 °F 29.7 in SE 3.8 mph 11.4 mph 38% 0 in 959 W/m2
12:04 79.7 °F 53.2 °F 29.7 in SE 6 mph 12.1 mph 40% 0 in 1056 W/m2
12:09 80.2 °F 52.3 °F 29.7 in SSE 5.4 mph 12.1 mph 38% 0 in 698 W/m2
12:14 80.1 °F 52.9 °F 29.7 in South 4.5 mph 9.8 mph 39% 0 in 915 W/m2
12:19 79.9 °F 52.9 °F 29.7 in South 6 mph 9.2 mph 39% 0 in 502 W/m2
12:24 80.1 °F 54.3 °F 29.7 in South 1.6 mph 9.2 mph 41% 0 in 489 W/m2
12:29 80.1 °F 57.6 °F 29.7 in SSE 4.5 mph 9.2 mph 46% 0 in 928 W/m2
12:35 79 °F 55.2 °F 29.7 in South 5.4 mph 9.2 mph 44% 0 in 579 W/m2
12:40 79.3 °F 54.3 °F 29.7 in South 6.9 mph 9.2 mph 42% 0 in 937 W/m2
12:45 80.2 °F 53.8 °F 29.7 in South 3.8 mph 8.3 mph 40% 0 in 569 W/m2
12:50 80.4 °F 55.2 °F 29.7 in SE 3.8 mph 11.4 mph 42% 0 in 610 W/m2
12:55 80.1 °F 52.9 °F 29.7 in ESE 5.4 mph 11.4 mph 39% 0 in 632 W/m2
13:00 79.5 °F 52.3 °F 29.7 in SE 5.4 mph 11.4 mph 39% 0 in 935 W/m2
13:06 80.8 °F 52.2 °F 29.7 in SSE 3.8 mph 9.2 mph 37% 0 in 759 W/m2
13:11 80.6 °F 53.4 °F 29.7 in SSE 3.1 mph 9.2 mph 39% 0 in 716 W/m2
13:16 81.1 °F 53.2 °F 29.7 in SE 4.5 mph 9.8 mph 38% 0 in 834 W/m2
13:21 81.3 °F 53.2 °F 29.7 in ESE 2.2 mph 9.8 mph 38% 0 in 439 W/m2
13:27 82.4 °F 54.3 °F 29.7 in SE 6 mph 10.7 mph 38% 0 in 533 W/m2
13:32 81.3 °F 54 °F 29.7 in SE 3.1 mph 10.7 mph 39% 0 in 418 W/m2
13:37 80.4 °F 53.2 °F 29.7 in ESE 2.2 mph 10.7 mph 39% 0 in 711 W/m2
13:42 81.3 °F 53.2 °F 29.7 in ESE 3.8 mph 6.9 mph 38% 0 in 545 W/m2
13:47 81.3 °F 52 °F 29.7 in SSE 5.4 mph 6.9 mph 36% 0 in 588 W/m2
13:52 81.3 °F 52 °F 29.7 in SSE 2.2 mph 7.6 mph 36% 0 in 726 W/m2
13:57 81.3 °F 51.1 °F 29.7 in SSE 3.1 mph 9.8 mph 35% 0 in 821 W/m2
14:02 81.1 °F 53.2 °F 29.7 in SE 3.8 mph 9.8 mph 38% 0 in 853 W/m2
14:07 81.3 °F 53.2 °F 29.7 in SE 4.5 mph 8.3 mph 38% 0 in 951 W/m2
14:12 81.9 °F 51.6 °F 29.7 in SE 2.2 mph 8.3 mph 35% 0 in 721 W/m2
14:17 82.4 °F 53.6 °F 29.7 in SSE 3.8 mph 7.6 mph 37% 0 in 906 W/m2
14:22 82.6 °F 54.3 °F 29.7 in SSE 4.5 mph 7.6 mph 38% 0 in 748 W/m2
14:27 82 °F 51.6 °F 29.7 in SSE 3.8 mph 9.2 mph 35% 0 in 747 W/m2
14:32 82 °F 52.5 °F 29.7 in SSE 3.8 mph 9.2 mph 36% 0 in 905 W/m2
14:37 82.9 °F 53.2 °F 29.7 in SE 3.1 mph 7.6 mph 36% 0 in 759 W/m2
14:42 83.3 °F 53.6 °F 29.7 in ESE 2.2 mph 7.6 mph 36% 0 in 646 W/m2
14:47 83.5 °F 53.1 °F 29.7 in ESE 5.4 mph 9.2 mph 35% 0 in 470 W/m2
14:52 82.2 °F 50.4 °F 29.7 in ESE 3.1 mph 9.2 mph 33% 0 in 466 W/m2
14:57 82.2 °F 51.1 °F 29.7 in ESE 1.6 mph 7.6 mph 34% 0 in 409 W/m2
15:02 82.6 °F 53.1 °F 29.7 in SE 1.6 mph 6 mph 36% 0 in 705 W/m2
15:08 83.5 °F 53.8 °F 29.7 in SSE 4.5 mph 6.9 mph 36% 0 in 393 W/m2
15:13 83.1 °F 53.4 °F 29.7 in SE 3.1 mph 7.6 mph 36% 0 in 453 W/m2
15:18 82.9 °F 54 °F 29.7 in SSE 2.2 mph 7.6 mph 37% 0 in 647 W/m2
15:23 82.9 °F 54 °F 29.7 in SSE 4.5 mph 9.8 mph 37% 0 in 477 W/m2
15:28 82 °F 53.2 °F 29.7 in SE 3.8 mph 9.8 mph 37% 0 in 630 W/m2
15:33 82.6 °F 53.8 °F 29.7 in ESE 2.2 mph 6.9 mph 37% 0 in 714 W/m2
15:38 83.3 °F 54.3 °F 29.7 in ESE 3.8 mph 7.6 mph 37% 0 in 573 W/m2
15:43 83.1 °F 53.4 °F 29.7 in ESE 3.8 mph 7.6 mph 36% 0 in 517 W/m2
15:48 83.1 °F 54.1 °F 29.7 in SE 3.1 mph 7.6 mph 37% 0 in 481 W/m2
15:53 83.5 °F 53.8 °F 29.7 in ESE 3.1 mph 7.6 mph 36% 0 in 383 W/m2
15:58 82.8 °F 54 °F 29.7 in SE 3.1 mph 6.9 mph 37% 0 in 500 W/m2
16:03 83.1 °F 53.4 °F 29.7 in SE 3.1 mph 6.9 mph 36% 0 in 505 W/m2
16:08 83.5 °F 54.5 °F 29.6 in ESE 2.2 mph 6.9 mph 37% 0 in 458 W/m2
16:13 83.1 °F 53.4 °F 29.6 in SE 5.4 mph 6.9 mph 36% 0 in 450 W/m2
16:18 82.2 °F 51.1 °F 29.7 in ESE 1.6 mph 6.9 mph 34% 0 in 450 W/m2
16:23 83.3 °F 54.3 °F 29.7 in East 0.7 mph 6.9 mph 37% 0 in 404 W/m2
16:28 84.6 °F 54 °F 29.6 in SSE 3.1 mph 5.4 mph 35% 0 in 402 W/m2
16:33 84 °F 55 °F 29.6 in South 3.1 mph 6 mph 37% 0 in 477 W/m2
16:38 84 °F 54.1 °F 29.6 in SSE 3.8 mph 8.3 mph 36% 0 in 443 W/m2
16:43 84.6 °F 54 °F 29.7 in SE 0.7 mph 8.3 mph 35% 0 in 503 W/m2
16:48 85.1 °F 53.6 °F 29.6 in SSE 3.1 mph 6 mph 34% 0 in 473 W/m2
16:53 84.2 °F 53.6 °F 29.6 in South 5.4 mph 7.6 mph 35% 0 in 417 W/m2
16:58 82.9 °F 53.2 °F 29.6 in SSE 4.5 mph 8.3 mph 36% 0 in 361 W/m2
17:03 82.8 °F 53.1 °F 29.6 in SSE 3.8 mph 8.3 mph 36% 0 in 359 W/m2
17:08 82.9 °F 53.2 °F 29.6 in SE 3.8 mph 7.6 mph 36% 0 in 341 W/m2
17:13 82.8 °F 54 °F 29.6 in East 0.7 mph 5.4 mph 37% 0 in 286 W/m2
17:18 83.1 °F 54.1 °F 29.6 in ESE 2.2 mph 5.4 mph 37% 0 in 319 W/m2
17:23 82 °F 52.5 °F 29.6 in SSW 3.8 mph 7.6 mph 36% 0 in 405 W/m2
17:28 82.6 °F 54.3 °F 29.6 in SSW 3.8 mph 7.6 mph 38% 0 in 378 W/m2
17:33 83.5 °F 55.2 °F 29.6 in SSW 2.2 mph 5.4 mph 38% 0 in 307 W/m2
17:38 83.7 °F 54.7 °F 29.6 in SSW 3.1 mph 6.9 mph 37% 0 in 264 W/m2
17:43 83.7 °F 55.4 °F 29.6 in SSW 0.7 mph 6.9 mph 38% 0 in 430 W/m2
17:48 85.5 °F 55.6 °F 29.6 in WSW 1.6 mph 5.4 mph 36% 0 in 396 W/m2
17:53 85.5 °F 55.6 °F 29.6 in WNW 4.5 mph 9.8 mph 36% 0 in 292 W/m2
17:58 82.8 °F 54.7 °F 29.6 in NW 9.2 mph 15.2 mph 38% 0 in 201 W/m2
18:03 81 °F 53.8 °F 29.6 in NW 4.5 mph 15.2 mph 39% 0 in 186 W/m2
18:08 80.4 °F 54.7 °F 29.6 in NW 5.4 mph 15.2 mph 41% 0 in 201 W/m2
18:13 80.4 °F 55.2 °F 29.6 in NW 4.5 mph 10.7 mph 42% 0 in 203 W/m2
18:18 80.4 °F 55.2 °F 29.6 in NW 4.5 mph 11.4 mph 42% 0 in 249 W/m2
18:23 80.8 °F 54.9 °F 29.6 in NW 3.8 mph 11.4 mph 41% 0 in 221 W/m2
18:28 80.6 °F 54.9 °F 29.6 in NNW 3.8 mph 9.2 mph 41% 0 in 162 W/m2
18:33 80.1 °F 54.9 °F 29.6 in NNW 3.1 mph 9.2 mph 42% 0 in 146 W/m2
18:38 79.3 °F 54.9 °F 29.6 in NNW 6 mph 10.7 mph 43% 0 in 132 W/m2
18:43 78.8 °F 54.5 °F 29.6 in NNW 3.8 mph 10.7 mph 43% 0 in 125 W/m2
18:48 78.8 °F 54.5 °F 29.6 in NW 6 mph 10.7 mph 43% 0 in 113 W/m2
18:53 78.6 °F 54.9 °F 29.6 in NNW 3.1 mph 10.7 mph 44% 0 in 106 W/m2
18:58 78.4 °F 54.9 °F 29.6 in NW 2.2 mph 9.8 mph 44% 0 in 99 W/m2
19:03 78.3 °F 54.7 °F 29.6 in WNW 2.2 mph 9.2 mph 44% 0 in 86 W/m2
19:08 78.1 °F 55 °F 29.6 in West 2.2 mph 9.2 mph 45% 0 in 81 W/m2
19:13 77.9 °F 54.3 °F 29.6 in WNW 4.5 mph 8.3 mph 44% 0 in 62 W/m2
19:18 77.7 °F 54.1 °F 29.6 in NW 3.8 mph 8.3 mph 44% 0 in 46 W/m2
19:23 77.5 °F 54 °F 29.6 in NNW 7.6 mph 13 mph 44% 0 in 42 W/m2
19:28 77.4 °F 53.8 °F 29.6 in NW 3.8 mph 13 mph 44% 0 in 36 W/m2
19:33 77 °F 53.4 °F 29.6 in NW 3.8 mph 10.7 mph 44% 0 in 37 W/m2
19:38 76.8 °F 54 °F 29.6 in NW 10.7 mph 16.8 mph 45% 0 in 43 W/m2
19:43 76.5 °F 53.6 °F 29.6 in NW 6 mph 16.8 mph 45% 0 in 27 W/m2
19:48 76.3 °F 53.4 °F 29.6 in NNW 4.5 mph 16.8 mph 45% 0 in 13 W/m2
19:53 76.3 °F 54 °F 29.6 in NW 6 mph 11.4 mph 46% 0 in 11 W/m2
19:58 76.1 °F 53.2 °F 29.6 in NW 6 mph 12.1 mph 45% 0 in 13 W/m2
20:03 75.9 °F 53.1 °F 29.6 in NNW 9.8 mph 12.1 mph 45% 0 in 12 W/m2
20:22 75.4 °F 52.5 °F 29.6 in NNW 10.7 mph 20.6 mph 45% 0 in 5 W/m2
20:27 75.4 °F 52.5 °F 29.6 in NW 12.1 mph 22.1 mph 45% 0 in 3 W/m2
20:32 75.2 °F 52.3 °F 29.6 in NNW 11.4 mph 22.1 mph 45% 0 in 1 W/m2
20:37 75 °F 52.9 °F 29.6 in NNW 9.8 mph 19 mph 46% 0 in 0 W/m2
20:42 74.8 °F 52.7 °F 29.6 in NNW 9.8 mph 18.3 mph 46% 0 in 0 W/m2
20:47 74.7 °F 52.5 °F 29.6 in NNW 5.4 mph 18.3 mph 46% 0 in 0 W/m2
20:52 74.5 °F 53.1 °F 29.6 in NNW 4.5 mph 14.5 mph 47% 0 in 0 W/m2
20:57 74.3 °F 52.9 °F 29.6 in NNW 3.8 mph 10.7 mph 47% 0 in 0 W/m2
21:02 73.9 °F 53.1 °F 29.6 in NNW 4.5 mph 9.2 mph 48% 0 in 0 W/m2
21:07 73.8 °F 52.3 °F 29.6 in North 6 mph 10.7 mph 47% 0 in 0 W/m2
21:12 73.8 °F 52.9 °F 29.6 in NNW 4.5 mph 10.7 mph 48% 0 in 0 W/m2
21:17 73.6 °F 52.7 °F 29.6 in NNW 6 mph 9.8 mph 48% 0 in 0 W/m2
21:22 73.4 °F 52.5 °F 29.6 in North 3.8 mph 9.8 mph 48% 0 in 0 W/m2
21:27 73.4 °F 52.5 °F 29.6 in North 3.8 mph 8.3 mph 48% 0 in 0 W/m2
21:32 73.2 °F 52.3 °F 29.6 in NNW 4.5 mph 13.6 mph 48% 0 in 0 W/m2
21:37 73.2 °F 52.3 °F 29.6 in NNW 4.5 mph 13.6 mph 48% 0 in 0 W/m2
21:43 73 °F 52.2 °F 29.6 in North 3.8 mph 9.2 mph 48% 0 in 0 W/m2
21:48 72.9 °F 52.2 °F 29.6 in North 3.1 mph 11.4 mph 48% 0 in 0 W/m2
21:53 72.9 °F 52.2 °F 29.6 in North 3.8 mph 13 mph 48% 0 in 0 W/m2
21:58 72.9 °F 51.4 °F 29.6 in NNW 5.4 mph 13 mph 47% 0 in 0 W/m2
22:03 72.9 °F 51.4 °F 29.6 in NNW 6 mph 11.4 mph 47% 0 in 0 W/m2
22:08 72.9 °F 51.4 °F 29.6 in North 5.4 mph 11.4 mph 47% 0 in 0 W/m2
22:13 72.9 °F 51.4 °F 29.6 in North 7.6 mph 13.6 mph 47% 0 in 0 W/m2
22:18 72.9 °F 51.4 °F 29.6 in North 9.2 mph 13.6 mph 47% 0 in 0 W/m2
22:23 72.5 °F 51.6 °F 29.6 in North 9.8 mph 15.2 mph 48% 0 in 0 W/m2
22:28 72.3 °F 51.6 °F 29.6 in North 6.9 mph 15.2 mph 48% 0 in 0 W/m2
22:33 72.1 °F 50.7 °F 29.6 in NNW 7.6 mph 13.6 mph 47% 0 in 0 W/m2
22:38 72.1 °F 50.7 °F 29.6 in North 8.3 mph 13 mph 47% 0 in 0 W/m2
22:43 72.1 °F 50.7 °F 29.6 in North 3.1 mph 12.1 mph 47% 0 in 0 W/m2
22:48 72.1 °F 50.7 °F 29.6 in North 3.8 mph 12.1 mph 47% 0 in 0 W/m2
22:53 72.1 °F 50.7 °F 29.6 in North 6 mph 10.7 mph 47% 0 in 0 W/m2
22:58 72 °F 51.3 °F 29.6 in North 3.1 mph 10.7 mph 48% 0 in 0 W/m2
23:03 71.8 °F 51.1 °F 29.6 in NNW 6 mph 9.2 mph 48% 0 in 0 W/m2
23:08 71.8 °F 51.1 °F 29.6 in NNW 5.4 mph 10.7 mph 48% 0 in 0 W/m2
23:13 71.8 °F 51.1 °F 29.6 in NNW 5.4 mph 10.7 mph 48% 0 in 0 W/m2
23:18 72 °F 51.8 °F 29.6 in NNW 3.8 mph 9.2 mph 49% 0 in 0 W/m2
23:23 71.8 °F 51.6 °F 29.6 in NNW 4.5 mph 8.3 mph 49% 0 in 0 W/m2
23:28 71.8 °F 52.2 °F 29.6 in North 4.5 mph 9.2 mph 50% 0 in 0 W/m2
23:33 71.6 °F 52 °F 29.6 in North 6 mph 11.4 mph 50% 0 in 0 W/m2
23:38 71.4 °F 52.9 °F 29.6 in North 7.6 mph 14.5 mph 52% 0 in 0 W/m2
23:43 71.4 °F 52.9 °F 29.6 in North 9.8 mph 14.5 mph 52% 0 in 0 W/m2
23:49 71.4 °F 52.9 °F 29.6 in NNW 6.9 mph 13.6 mph 52% 0 in 0 W/m2
23:54 71.2 °F 52.2 °F 29.6 in NNW 7.6 mph 13.6 mph 51% 0 in 0 W/m2
23:59 71.1 °F 52 °F 29.6 in North 5.4 mph 13 mph 51% 0 in 0 W/m2
Northern Hawkes Bay. New Zealand Historic Data
Compliments of Weather Underground - 2 mb